Terminal Aerodrome Forecast
Issued by NWS

Home | Current Version | Previous Version | Text Only | Print | Product List | Glossary On
Versions: 1 2 3 4 5 6 7 8 9 10 11 12 13 14
000
FTUS46 KMTR 231125
TAFOAK
TAF
KOAK 231125Z 2312/2418 09004KT P6SM BKN040
     FM231900 VRB04KT P6SM SCT020 SCT200
     FM232100 27005KT P6SM SCT050 SCT200
     FM240400 12004KT P6SM SCT200
     FM241000 17008KT P6SM BKN050
     FM241500 16012KT P6SM BKN025=

USA.gov is the U.S. government's official web portal to all federal, state and local government web resources and services.